sensor_id;sensor_type;location;lat;lon;timestamp;P1;durP1;ratioP1;P2;durP2;ratioP2
19414;SDS011;9843;48.882;12.592;2022-11-06T00:01:43;24.73;;;21.07;;
19414;SDS011;9843;48.882;12.592;2022-11-06T00:04:10;24.60;;;20.33;;
19414;SDS011;9843;48.882;12.592;2022-11-06T00:06:37;24.73;;;19.80;;
19414;SDS011;9843;48.882;12.592;2022-11-06T00:09:13;24.07;;;19.50;;
19414;SDS011;9843;48.882;12.592;2022-11-06T00:11:41;20.57;;;17.40;;
19414;SDS011;9843;48.882;12.592;2022-11-06T00:14:08;20.00;;;15.00;;
19414;SDS011;9843;48.882;12.592;2022-11-06T00:16:36;20.17;;;15.40;;
19414;SDS011;9843;48.882;12.592;2022-11-06T00:19:05;16.90;;;14.83;;
19414;SDS011;9843;48.882;12.592;2022-11-06T00:21:32;15.63;;;14.03;;
19414;SDS011;9843;48.882;12.592;2022-11-06T00:24:00;17.13;;;15.40;;
19414;SDS011;9843;48.882;12.592;2022-11-06T00:26:28;17.43;;;14.30;;
19414;SDS011;9843;48.882;12.592;2022-11-06T00:28:55;21.23;;;16.57;;
19414;SDS011;9843;48.882;12.592;2022-11-06T00:31:24;19.17;;;17.17;;
19414;SDS011;9843;48.882;12.592;2022-11-06T00:33:52;15.63;;;13.70;;
19414;SDS011;9843;48.882;12.592;2022-11-06T00:36:23;18.77;;;15.27;;
19414;SDS011;9843;48.882;12.592;2022-11-06T00:38:51;16.40;;;13.63;;
19414;SDS011;9843;48.882;12.592;2022-11-06T00:41:19;19.83;;;17.40;;
19414;SDS011;9843;48.882;12.592;2022-11-06T00:43:47;19.37;;;14.93;;
19414;SDS011;9843;48.882;12.592;2022-11-06T00:46:14;20.53;;;13.93;;
19414;SDS011;9843;48.882;12.592;2022-11-06T00:48:41;16.73;;;12.97;;
19414;SDS011;9843;48.882;12.592;2022-11-06T00:51:09;16.27;;;14.60;;
19414;SDS011;9843;48.882;12.592;2022-11-06T00:53:38;16.80;;;13.47;;
19414;SDS011;9843;48.882;12.592;2022-11-06T00:56:07;17.37;;;14.53;;
19414;SDS011;9843;48.882;12.592;2022-11-06T00:58:35;16.93;;;14.90;;
19414;SDS011;9843;48.882;12.592;2022-11-06T01:01:06;18.13;;;15.67;;
19414;SDS011;9843;48.882;12.592;2022-11-06T01:03:34;15.77;;;14.30;;
19414;SDS011;9843;48.882;12.592;2022-11-06T01:06:05;24.07;;;16.87;;
19414;SDS011;9843;48.882;12.592;2022-11-06T01:08:33;20.10;;;16.07;;
19414;SDS011;9843;48.882;12.592;2022-11-06T01:11:05;18.33;;;15.33;;
19414;SDS011;9843;48.882;12.592;2022-11-06T01:13:32;18.60;;;16.60;;
19414;SDS011;9843;48.882;12.592;2022-11-06T01:16:00;23.23;;;16.97;;
19414;SDS011;9843;48.882;12.592;2022-11-06T01:18:27;21.30;;;17.67;;
19414;SDS011;9843;48.882;12.592;2022-11-06T01:20:54;17.67;;;14.93;;
19414;SDS011;9843;48.882;12.592;2022-11-06T01:23:21;19.30;;;15.27;;
19414;SDS011;9843;48.882;12.592;2022-11-06T01:25:54;21.77;;;16.27;;
19414;SDS011;9843;48.882;12.592;2022-11-06T01:28:23;18.67;;;14.90;;
19414;SDS011;9843;48.882;12.592;2022-11-06T01:30:50;17.47;;;13.57;;
19414;SDS011;9843;48.882;12.592;2022-11-06T01:33:18;16.40;;;14.73;;
19414;SDS011;9843;48.882;12.592;2022-11-06T01:35:45;14.13;;;12.63;;
19414;SDS011;9843;48.882;12.592;2022-11-06T01:38:12;19.17;;;14.90;;
19414;SDS011;9843;48.882;12.592;2022-11-06T01:40:40;17.43;;;14.73;;
19414;SDS011;9843;48.882;12.592;2022-11-06T01:43:10;16.07;;;14.40;;
19414;SDS011;9843;48.882;12.592;2022-11-06T01:45:40;16.77;;;14.47;;
19414;SDS011;9843;48.882;12.592;2022-11-06T01:48:09;25.47;;;14.87;;
19414;SDS011;9843;48.882;12.592;2022-11-06T01:50:36;23.83;;;16.90;;
19414;SDS011;9843;48.882;12.592;2022-11-06T01:53:03;27.47;;;16.03;;
19414;SDS011;9843;48.882;12.592;2022-11-06T01:55:31;19.77;;;16.03;;
19414;SDS011;9843;48.882;12.592;2022-11-06T01:58:00;18.53;;;16.43;;
19414;SDS011;9843;48.882;12.592;2022-11-06T02:00:28;24.20;;;19.03;;
19414;SDS011;9843;48.882;12.592;2022-11-06T02:02:57;26.60;;;17.03;;
19414;SDS011;9843;48.882;12.592;2022-11-06T02:05:25;25.37;;;20.13;;
19414;SDS011;9843;48.882;12.592;2022-11-06T02:07:52;28.90;;;20.10;;
19414;SDS011;9843;48.882;12.592;2022-11-06T02:10:21;25.37;;;19.53;;
19414;SDS011;9843;48.882;12.592;2022-11-06T02:12:52;25.67;;;20.03;;
19414;SDS011;9843;48.882;12.592;2022-11-06T02:15:22;26.17;;;18.30;;
19414;SDS011;9843;48.882;12.592;2022-11-06T02:18:08;23.27;;;19.00;;
19414;SDS011;9843;48.882;12.592;2022-11-06T02:20:39;24.37;;;19.03;;
19414;SDS011;9843;48.882;12.592;2022-11-06T02:23:17;29.37;;;20.73;;
19414;SDS011;9843;48.882;12.592;2022-11-06T02:25:47;29.63;;;20.83;;
19414;SDS011;9843;48.882;12.592;2022-11-06T02:28:20;29.20;;;19.60;;
19414;SDS011;9843;48.882;12.592;2022-11-06T02:30:48;37.40;;;22.30;;
19414;SDS011;9843;48.882;12.592;2022-11-06T02:33:16;24.47;;;17.90;;
19414;SDS011;9843;48.882;12.592;2022-11-06T02:35:45;33.87;;;23.43;;
19414;SDS011;9843;48.882;12.592;2022-11-06T02:38:15;30.87;;;20.83;;
19414;SDS011;9843;48.882;12.592;2022-11-06T02:40:48;22.27;;;19.10;;
19414;SDS011;9843;48.882;12.592;2022-11-06T02:43:17;27.50;;;22.40;;
19414;SDS011;9843;48.882;12.592;2022-11-06T02:45:47;24.53;;;18.73;;
19414;SDS011;9843;48.882;12.592;2022-11-06T02:48:15;24.97;;;20.57;;
19414;SDS011;9843;48.882;12.592;2022-11-06T02:50:45;29.30;;;23.70;;
19414;SDS011;9843;48.882;12.592;2022-11-06T02:53:14;33.03;;;22.27;;
19414;SDS011;9843;48.882;12.592;2022-11-06T02:55:42;29.23;;;20.00;;
19414;SDS011;9843;48.882;12.592;2022-11-06T02:58:11;29.53;;;21.93;;
19414;SDS011;9843;48.882;12.592;2022-11-06T03:00:41;25.33;;;21.63;;
19414;SDS011;9843;48.882;12.592;2022-11-06T03:03:11;23.43;;;18.27;;
19414;SDS011;9843;48.882;12.592;2022-11-06T03:05:43;30.10;;;23.57;;
19414;SDS011;9843;48.882;12.592;2022-11-06T03:08:14;27.27;;;21.43;;
19414;SDS011;9843;48.882;12.592;2022-11-06T03:10:44;28.67;;;22.97;;
19414;SDS011;9843;48.882;12.592;2022-11-06T03:13:13;33.40;;;21.87;;
19414;SDS011;9843;48.882;12.592;2022-11-06T03:15:46;34.30;;;23.70;;
19414;SDS011;9843;48.882;12.592;2022-11-06T03:18:15;29.90;;;24.23;;
19414;SDS011;9843;48.882;12.592;2022-11-06T03:20:46;37.50;;;23.70;;
19414;SDS011;9843;48.882;12.592;2022-11-06T03:23:17;32.67;;;23.30;;
19414;SDS011;9843;48.882;12.592;2022-11-06T03:25:46;36.40;;;24.40;;
19414;SDS011;9843;48.882;12.592;2022-11-06T03:28:18;38.17;;;26.37;;
19414;SDS011;9843;48.882;12.592;2022-11-06T03:30:51;34.13;;;23.73;;
19414;SDS011;9843;48.882;12.592;2022-11-06T03:33:19;37.30;;;25.20;;
19414;SDS011;9843;48.882;12.592;2022-11-06T03:35:47;32.17;;;22.97;;
19414;SDS011;9843;48.882;12.592;2022-11-06T03:38:17;34.23;;;22.43;;
19414;SDS011;9843;48.882;12.592;2022-11-06T03:40:47;30.13;;;22.10;;
19414;SDS011;9843;48.882;12.592;2022-11-06T03:43:16;40.50;;;26.90;;
19414;SDS011;9843;48.882;12.592;2022-11-06T03:45:44;31.27;;;23.77;;
19414;SDS011;9843;48.882;12.592;2022-11-06T03:48:14;32.83;;;23.80;;
19414;SDS011;9843;48.882;12.592;2022-11-06T03:50:45;36.47;;;24.13;;
19414;SDS011;9843;48.882;12.592;2022-11-06T03:53:14;34.67;;;23.17;;
19414;SDS011;9843;48.882;12.592;2022-11-06T03:55:44;32.50;;;24.57;;
19414;SDS011;9843;48.882;12.592;2022-11-06T03:58:12;36.13;;;27.73;;
19414;SDS011;9843;48.882;12.592;2022-11-06T04:00:41;39.93;;;29.73;;
19414;SDS011;9843;48.882;12.592;2022-11-06T04:03:10;38.90;;;26.87;;
19414;SDS011;9843;48.882;12.592;2022-11-06T04:05:42;37.70;;;25.37;;
19414;SDS011;9843;48.882;12.592;2022-11-06T04:08:10;41.87;;;26.40;;
19414;SDS011;9843;48.882;12.592;2022-11-06T04:10:55;39.33;;;28.30;;
19414;SDS011;9843;48.882;12.592;2022-11-06T04:13:41;39.20;;;28.47;;
19414;SDS011;9843;48.882;12.592;2022-11-06T04:16:26;38.17;;;26.60;;
19414;SDS011;9843;48.882;12.592;2022-11-06T04:18:56;44.13;;;30.20;;
19414;SDS011;9843;48.882;12.592;2022-11-06T04:21:27;38.67;;;26.67;;
19414;SDS011;9843;48.882;12.592;2022-11-06T04:24:07;42.73;;;31.97;;
19414;SDS011;9843;48.882;12.592;2022-11-06T04:26:56;43.13;;;28.97;;
19414;SDS011;9843;48.882;12.592;2022-11-06T04:29:29;39.17;;;26.53;;
19414;SDS011;9843;48.882;12.592;2022-11-06T04:32:02;42.00;;;31.13;;
19414;SDS011;9843;48.882;12.592;2022-11-06T04:34:32;38.70;;;26.57;;
19414;SDS011;9843;48.882;12.592;2022-11-06T04:37:05;38.07;;;27.77;;
19414;SDS011;9843;48.882;12.592;2022-11-06T04:39:35;43.33;;;29.67;;
19414;SDS011;9843;48.882;12.592;2022-11-06T04:42:07;38.13;;;27.83;;
19414;SDS011;9843;48.882;12.592;2022-11-06T04:44:36;36.90;;;24.53;;
19414;SDS011;9843;48.882;12.592;2022-11-06T04:47:06;41.33;;;29.37;;
19414;SDS011;9843;48.882;12.592;2022-11-06T04:49:35;48.00;;;27.87;;
19414;SDS011;9843;48.882;12.592;2022-11-06T04:52:05;40.20;;;27.97;;
19414;SDS011;9843;48.882;12.592;2022-11-06T04:54:33;41.07;;;30.60;;
19414;SDS011;9843;48.882;12.592;2022-11-06T04:57:01;45.07;;;29.93;;
19414;SDS011;9843;48.882;12.592;2022-11-06T04:59:29;48.33;;;32.10;;
19414;SDS011;9843;48.882;12.592;2022-11-06T05:01:56;47.03;;;30.77;;
19414;SDS011;9843;48.882;12.592;2022-11-06T05:04:24;42.60;;;30.43;;
19414;SDS011;9843;48.882;12.592;2022-11-06T05:06:51;37.33;;;27.33;;
19414;SDS011;9843;48.882;12.592;2022-11-06T05:09:19;35.57;;;25.40;;
19414;SDS011;9843;48.882;12.592;2022-11-06T05:11:46;37.07;;;26.23;;
19414;SDS011;9843;48.882;12.592;2022-11-06T05:14:13;35.00;;;23.00;;
19414;SDS011;9843;48.882;12.592;2022-11-06T05:16:40;38.23;;;25.00;;
19414;SDS011;9843;48.882;12.592;2022-11-06T05:19:08;30.50;;;23.10;;
19414;SDS011;9843;48.882;12.592;2022-11-06T05:21:35;32.77;;;24.90;;
19414;SDS011;9843;48.882;12.592;2022-11-06T05:24:21;32.50;;;23.80;;
19414;SDS011;9843;48.882;12.592;2022-11-06T05:26:48;34.07;;;24.73;;
19414;SDS011;9843;48.882;12.592;2022-11-06T05:29:15;38.90;;;28.10;;
19414;SDS011;9843;48.882;12.592;2022-11-06T05:31:42;36.63;;;26.97;;
19414;SDS011;9843;48.882;12.592;2022-11-06T05:34:09;35.83;;;26.33;;
19414;SDS011;9843;48.882;12.592;2022-11-06T05:36:36;30.87;;;23.00;;
19414;SDS011;9843;48.882;12.592;2022-11-06T05:39:03;41.60;;;25.80;;
19414;SDS011;9843;48.882;12.592;2022-11-06T05:41:32;36.80;;;25.43;;
19414;SDS011;9843;48.882;12.592;2022-11-06T05:43:59;37.80;;;28.17;;
19414;SDS011;9843;48.882;12.592;2022-11-06T05:46:26;41.53;;;30.50;;
19414;SDS011;9843;48.882;12.592;2022-11-06T05:48:53;40.20;;;27.80;;
19414;SDS011;9843;48.882;12.592;2022-11-06T05:51:20;43.53;;;27.57;;
19414;SDS011;9843;48.882;12.592;2022-11-06T05:53:47;42.57;;;26.30;;
19414;SDS011;9843;48.882;12.592;2022-11-06T05:56:14;49.63;;;30.07;;
19414;SDS011;9843;48.882;12.592;2022-11-06T05:58:43;47.13;;;28.73;;
19414;SDS011;9843;48.882;12.592;2022-11-06T06:01:10;45.40;;;29.83;;
19414;SDS011;9843;48.882;12.592;2022-11-06T06:03:38;48.80;;;28.47;;
19414;SDS011;9843;48.882;12.592;2022-11-06T06:06:05;43.97;;;29.97;;
19414;SDS011;9843;48.882;12.592;2022-11-06T06:08:32;48.97;;;30.30;;
19414;SDS011;9843;48.882;12.592;2022-11-06T06:10:59;47.43;;;31.30;;
19414;SDS011;9843;48.882;12.592;2022-11-06T06:13:26;42.60;;;30.53;;
19414;SDS011;9843;48.882;12.592;2022-11-06T06:15:59;51.73;;;30.53;;
19414;SDS011;9843;48.882;12.592;2022-11-06T06:18:26;44.00;;;29.47;;
19414;SDS011;9843;48.882;12.592;2022-11-06T06:20:53;49.23;;;31.13;;
19414;SDS011;9843;48.882;12.592;2022-11-06T06:23:22;43.63;;;29.40;;
19414;SDS011;9843;48.882;12.592;2022-11-06T06:25:50;47.13;;;29.10;;
19414;SDS011;9843;48.882;12.592;2022-11-06T06:28:17;50.57;;;32.20;;
19414;SDS011;9843;48.882;12.592;2022-11-06T06:30:44;49.73;;;32.43;;
19414;SDS011;9843;48.882;12.592;2022-11-06T06:33:12;50.90;;;30.67;;
19414;SDS011;9843;48.882;12.592;2022-11-06T06:35:39;43.63;;;27.63;;
19414;SDS011;9843;48.882;12.592;2022-11-06T06:38:06;47.93;;;31.70;;
19414;SDS011;9843;48.882;12.592;2022-11-06T06:40:34;50.00;;;34.60;;
19414;SDS011;9843;48.882;12.592;2022-11-06T06:43:01;51.43;;;34.50;;
19414;SDS011;9843;48.882;12.592;2022-11-06T06:45:28;49.07;;;33.83;;
19414;SDS011;9843;48.882;12.592;2022-11-06T06:48:00;50.37;;;33.13;;
19414;SDS011;9843;48.882;12.592;2022-11-06T06:50:28;42.83;;;28.63;;
19414;SDS011;9843;48.882;12.592;2022-11-06T06:52:55;45.67;;;30.13;;
19414;SDS011;9843;48.882;12.592;2022-11-06T06:55:22;51.73;;;31.07;;
19414;SDS011;9843;48.882;12.592;2022-11-06T06:57:54;40.87;;;29.93;;
19414;SDS011;9843;48.882;12.592;2022-11-06T07:00:21;42.10;;;28.00;;
19414;SDS011;9843;48.882;12.592;2022-11-06T07:02:49;35.80;;;23.83;;
19414;SDS011;9843;48.882;12.592;2022-11-06T07:05:16;33.10;;;22.57;;
19414;SDS011;9843;48.882;12.592;2022-11-06T07:07:44;23.73;;;19.87;;
19414;SDS011;9843;48.882;12.592;2022-11-06T07:10:11;26.60;;;19.63;;
19414;SDS011;9843;48.882;12.592;2022-11-06T07:12:38;23.93;;;18.20;;
19414;SDS011;9843;48.882;12.592;2022-11-06T07:15:06;24.67;;;19.47;;
19414;SDS011;9843;48.882;12.592;2022-11-06T07:17:33;21.20;;;18.27;;
19414;SDS011;9843;48.882;12.592;2022-11-06T07:20:00;25.73;;;19.47;;
19414;SDS011;9843;48.882;12.592;2022-11-06T07:22:28;18.50;;;15.53;;
19414;SDS011;9843;48.882;12.592;2022-11-06T07:24:56;20.40;;;15.57;;
19414;SDS011;9843;48.882;12.592;2022-11-06T07:27:23;22.73;;;19.07;;
19414;SDS011;9843;48.882;12.592;2022-11-06T07:29:51;19.93;;;16.93;;
19414;SDS011;9843;48.882;12.592;2022-11-06T07:32:18;21.47;;;15.97;;
19414;SDS011;9843;48.882;12.592;2022-11-06T07:34:45;23.77;;;18.67;;
19414;SDS011;9843;48.882;12.592;2022-11-06T07:37:12;20.70;;;17.27;;
19414;SDS011;9843;48.882;12.592;2022-11-06T07:39:39;19.33;;;15.07;;
19414;SDS011;9843;48.882;12.592;2022-11-06T07:42:08;19.47;;;15.53;;
19414;SDS011;9843;48.882;12.592;2022-11-06T07:44:35;19.93;;;17.00;;
19414;SDS011;9843;48.882;12.592;2022-11-06T07:47:02;29.17;;;23.27;;
19414;SDS011;9843;48.882;12.592;2022-11-06T07:49:30;25.73;;;18.23;;
19414;SDS011;9843;48.882;12.592;2022-11-06T07:51:57;19.63;;;16.77;;
19414;SDS011;9843;48.882;12.592;2022-11-06T07:54:24;20.10;;;16.83;;
19414;SDS011;9843;48.882;12.592;2022-11-06T07:56:51;23.60;;;17.07;;
19414;SDS011;9843;48.882;12.592;2022-11-06T07:59:20;27.90;;;18.33;;
19414;SDS011;9843;48.882;12.592;2022-11-06T08:01:47;22.37;;;18.40;;
19414;SDS011;9843;48.882;12.592;2022-11-06T08:04:14;28.83;;;18.57;;
19414;SDS011;9843;48.882;12.592;2022-11-06T08:06:41;24.47;;;18.07;;
19414;SDS011;9843;48.882;12.592;2022-11-06T08:09:08;22.47;;;16.77;;
19414;SDS011;9843;48.882;12.592;2022-11-06T08:11:35;18.37;;;16.27;;
19414;SDS011;9843;48.882;12.592;2022-11-06T08:14:02;21.13;;;15.97;;
19414;SDS011;9843;48.882;12.592;2022-11-06T08:16:31;20.90;;;15.27;;
19414;SDS011;9843;48.882;12.592;2022-11-06T08:18:58;24.00;;;17.87;;
19414;SDS011;9843;48.882;12.592;2022-11-06T08:21:25;21.23;;;17.33;;
19414;SDS011;9843;48.882;12.592;2022-11-06T08:23:52;22.63;;;19.77;;
19414;SDS011;9843;48.882;12.592;2022-11-06T08:26:19;21.90;;;18.17;;
19414;SDS011;9843;48.882;12.592;2022-11-06T08:28:46;25.23;;;17.07;;
19414;SDS011;9843;48.882;12.592;2022-11-06T08:31:13;24.87;;;17.43;;
19414;SDS011;9843;48.882;12.592;2022-11-06T08:33:42;31.20;;;20.70;;
19414;SDS011;9843;48.882;12.592;2022-11-06T08:36:09;21.73;;;17.37;;
19414;SDS011;9843;48.882;12.592;2022-11-06T08:38:36;24.07;;;19.37;;
19414;SDS011;9843;48.882;12.592;2022-11-06T08:41:04;23.03;;;16.93;;
19414;SDS011;9843;48.882;12.592;2022-11-06T08:43:31;23.67;;;17.73;;
19414;SDS011;9843;48.882;12.592;2022-11-06T08:45:58;27.20;;;18.77;;
19414;SDS011;9843;48.882;12.592;2022-11-06T08:48:25;23.77;;;18.27;;
19414;SDS011;9843;48.882;12.592;2022-11-06T08:50:54;23.90;;;17.93;;
19414;SDS011;9843;48.882;12.592;2022-11-06T08:53:21;21.80;;;17.53;;
19414;SDS011;9843;48.882;12.592;2022-11-06T08:55:48;24.13;;;20.20;;
19414;SDS011;9843;48.882;12.592;2022-11-06T08:58:15;25.37;;;17.03;;
19414;SDS011;9843;48.882;12.592;2022-11-06T09:00:42;25.57;;;18.20;;
19414;SDS011;9843;48.882;12.592;2022-11-06T09:03:12;24.53;;;17.60;;
19414;SDS011;9843;48.882;12.592;2022-11-06T09:05:40;22.03;;;18.17;;
19414;SDS011;9843;48.882;12.592;2022-11-06T09:08:10;25.13;;;19.37;;
19414;SDS011;9843;48.882;12.592;2022-11-06T09:10:37;26.67;;;18.43;;
19414;SDS011;9843;48.882;12.592;2022-11-06T09:13:04;32.20;;;18.00;;
19414;SDS011;9843;48.882;12.592;2022-11-06T09:15:32;24.10;;;18.60;;
19414;SDS011;9843;48.882;12.592;2022-11-06T09:17:59;23.57;;;16.83;;
19414;SDS011;9843;48.882;12.592;2022-11-06T09:20:26;21.63;;;18.00;;
19414;SDS011;9843;48.882;12.592;2022-11-06T09:22:53;21.10;;;18.50;;
19414;SDS011;9843;48.882;12.592;2022-11-06T09:25:22;22.27;;;17.40;;
19414;SDS011;9843;48.882;12.592;2022-11-06T09:27:49;25.63;;;18.37;;
19414;SDS011;9843;48.882;12.592;2022-11-06T09:30:17;22.90;;;16.73;;
19414;SDS011;9843;48.882;12.592;2022-11-06T09:32:45;22.67;;;16.20;;
19414;SDS011;9843;48.882;12.592;2022-11-06T09:35:13;23.57;;;17.87;;
19414;SDS011;9843;48.882;12.592;2022-11-06T09:37:40;27.03;;;22.23;;
19414;SDS011;9843;48.882;12.592;2022-11-06T09:40:08;21.73;;;19.27;;
19414;SDS011;9843;48.882;12.592;2022-11-06T09:42:41;22.13;;;16.97;;
19414;SDS011;9843;48.882;12.592;2022-11-06T09:45:13;25.60;;;19.50;;
19414;SDS011;9843;48.882;12.592;2022-11-06T09:47:42;21.63;;;17.50;;
19414;SDS011;9843;48.882;12.592;2022-11-06T09:50:12;24.50;;;17.93;;
19414;SDS011;9843;48.882;12.592;2022-11-06T09:52:41;22.47;;;17.13;;
19414;SDS011;9843;48.882;12.592;2022-11-06T09:55:11;20.87;;;15.67;;
19414;SDS011;9843;48.882;12.592;2022-11-06T09:57:41;27.63;;;18.80;;
19414;SDS011;9843;48.882;12.592;2022-11-06T10:00:11;22.13;;;16.73;;
19414;SDS011;9843;48.882;12.592;2022-11-06T10:02:40;17.20;;;14.67;;
19414;SDS011;9843;48.882;12.592;2022-11-06T10:05:11;18.73;;;14.47;;
19414;SDS011;9843;48.882;12.592;2022-11-06T10:07:41;18.07;;;15.40;;
19414;SDS011;9843;48.882;12.592;2022-11-06T10:10:10;17.67;;;13.50;;
19414;SDS011;9843;48.882;12.592;2022-11-06T10:12:44;19.50;;;14.37;;
19414;SDS011;9843;48.882;12.592;2022-11-06T10:15:19;20.10;;;14.10;;
19414;SDS011;9843;48.882;12.592;2022-11-06T10:17:50;23.37;;;14.33;;
19414;SDS011;9843;48.882;12.592;2022-11-06T10:20:20;22.03;;;15.97;;
19414;SDS011;9843;48.882;12.592;2022-11-06T10:22:52;21.70;;;14.40;;
19414;SDS011;9843;48.882;12.592;2022-11-06T10:25:23;25.13;;;15.63;;
19414;SDS011;9843;48.882;12.592;2022-11-06T10:28:00;16.93;;;14.33;;
19414;SDS011;9843;48.882;12.592;2022-11-06T10:30:32;22.67;;;16.53;;
19414;SDS011;9843;48.882;12.592;2022-11-06T10:33:09;18.07;;;15.10;;
19414;SDS011;9843;48.882;12.592;2022-11-06T10:35:39;24.27;;;17.23;;
19414;SDS011;9843;48.882;12.592;2022-11-06T10:38:09;22.17;;;16.17;;
19414;SDS011;9843;48.882;12.592;2022-11-06T10:40:37;22.63;;;18.33;;
19414;SDS011;9843;48.882;12.592;2022-11-06T10:43:12;19.17;;;14.53;;
19414;SDS011;9843;48.882;12.592;2022-11-06T10:45:43;16.40;;;13.90;;
19414;SDS011;9843;48.882;12.592;2022-11-06T10:48:14;16.70;;;13.10;;
19414;SDS011;9843;48.882;12.592;2022-11-06T10:50:47;19.20;;;14.13;;
19414;SDS011;9843;48.882;12.592;2022-11-06T10:53:18;21.37;;;13.63;;
19414;SDS011;9843;48.882;12.592;2022-11-06T10:55:54;18.63;;;13.90;;
19414;SDS011;9843;48.882;12.592;2022-11-06T10:58:26;20.03;;;15.20;;
19414;SDS011;9843;48.882;12.592;2022-11-06T11:00:57;18.57;;;14.43;;
19414;SDS011;9843;48.882;12.592;2022-11-06T11:03:25;19.97;;;13.83;;
19414;SDS011;9843;48.882;12.592;2022-11-06T11:05:53;16.90;;;13.70;;
19414;SDS011;9843;48.882;12.592;2022-11-06T11:08:39;17.80;;;14.57;;
19414;SDS011;9843;48.882;12.592;2022-11-06T11:11:20;17.27;;;13.23;;
19414;SDS011;9843;48.882;12.592;2022-11-06T11:13:50;16.07;;;12.87;;
19414;SDS011;9843;48.882;12.592;2022-11-06T11:16:17;17.53;;;13.43;;
19414;SDS011;9843;48.882;12.592;2022-11-06T11:18:46;17.03;;;12.70;;
19414;SDS011;9843;48.882;12.592;2022-11-06T11:21:14;13.33;;;11.93;;
19414;SDS011;9843;48.882;12.592;2022-11-06T11:23:41;12.57;;;10.80;;
19414;SDS011;9843;48.882;12.592;2022-11-06T11:26:17;12.00;;;9.10;;
19414;SDS011;9843;48.882;12.592;2022-11-06T11:28:50;12.83;;;11.20;;
19414;SDS011;9843;48.882;12.592;2022-11-06T11:31:18;14.80;;;11.77;;
19414;SDS011;9843;48.882;12.592;2022-11-06T11:33:48;11.70;;;10.40;;
19414;SDS011;9843;48.882;12.592;2022-11-06T11:36:16;12.30;;;11.03;;
19414;SDS011;9843;48.882;12.592;2022-11-06T11:38:43;12.53;;;10.43;;
19414;SDS011;9843;48.882;12.592;2022-11-06T11:41:11;12.47;;;10.17;;
19414;SDS011;9843;48.882;12.592;2022-11-06T11:43:38;13.67;;;12.07;;
19414;SDS011;9843;48.882;12.592;2022-11-06T11:46:16;13.17;;;10.33;;
19414;SDS011;9843;48.882;12.592;2022-11-06T11:48:45;14.07;;;12.03;;
19414;SDS011;9843;48.882;12.592;2022-11-06T11:51:22;10.50;;;9.40;;
19414;SDS011;9843;48.882;12.592;2022-11-06T11:53:50;18.07;;;12.80;;
19414;SDS011;9843;48.882;12.592;2022-11-06T11:56:18;10.60;;;9.50;;
19414;SDS011;9843;48.882;12.592;2022-11-06T11:58:47;11.80;;;10.50;;
19414;SDS011;9843;48.882;12.592;2022-11-06T12:01:16;12.10;;;10.33;;
19414;SDS011;9843;48.882;12.592;2022-11-06T12:03:45;15.13;;;10.47;;
19414;SDS011;9843;48.882;12.592;2022-11-06T12:06:16;11.20;;;9.23;;
19414;SDS011;9843;48.882;12.592;2022-11-06T12:08:44;11.23;;;9.13;;
19414;SDS011;9843;48.882;12.592;2022-11-06T12:11:13;11.93;;;10.73;;
19414;SDS011;9843;48.882;12.592;2022-11-06T12:13:41;16.80;;;9.90;;
19414;SDS011;9843;48.882;12.592;2022-11-06T12:16:09;9.13;;;8.23;;
19414;SDS011;9843;48.882;12.592;2022-11-06T12:18:39;9.83;;;8.83;;
19414;SDS011;9843;48.882;12.592;2022-11-06T12:21:10;9.00;;;8.07;;
19414;SDS011;9843;48.882;12.592;2022-11-06T12:23:40;14.47;;;10.50;;
19414;SDS011;9843;48.882;12.592;2022-11-06T12:26:10;13.67;;;9.90;;
19414;SDS011;9843;48.882;12.592;2022-11-06T12:28:38;17.97;;;10.63;;
19414;SDS011;9843;48.882;12.592;2022-11-06T12:31:08;13.77;;;11.20;;
19414;SDS011;9843;48.882;12.592;2022-11-06T12:33:38;11.13;;;9.70;;
19414;SDS011;9843;48.882;12.592;2022-11-06T12:36:06;12.93;;;10.20;;
19414;SDS011;9843;48.882;12.592;2022-11-06T12:38:36;11.43;;;9.53;;
19414;SDS011;9843;48.882;12.592;2022-11-06T12:41:05;11.50;;;9.13;;
19414;SDS011;9843;48.882;12.592;2022-11-06T12:43:36;12.63;;;10.87;;
19414;SDS011;9843;48.882;12.592;2022-11-06T12:46:08;12.87;;;9.73;;
19414;SDS011;9843;48.882;12.592;2022-11-06T12:48:46;11.70;;;9.30;;
19414;SDS011;9843;48.882;12.592;2022-11-06T12:51:18;10.47;;;8.70;;
19414;SDS011;9843;48.882;12.592;2022-11-06T12:53:52;9.43;;;7.23;;
19414;SDS011;9843;48.882;12.592;2022-11-06T12:56:24;12.33;;;8.47;;
19414;SDS011;9843;48.882;12.592;2022-11-06T12:59:05;9.70;;;8.70;;
19414;SDS011;9843;48.882;12.592;2022-11-06T13:01:41;11.43;;;8.87;;
19414;SDS011;9843;48.882;12.592;2022-11-06T13:04:19;10.87;;;9.23;;
19414;SDS011;9843;48.882;12.592;2022-11-06T13:06:55;9.23;;;7.60;;
19414;SDS011;9843;48.882;12.592;2022-11-06T13:09:25;12.70;;;8.67;;
19414;SDS011;9843;48.882;12.592;2022-11-06T13:11:54;9.57;;;8.60;;
19414;SDS011;9843;48.882;12.592;2022-11-06T13:14:24;10.60;;;9.37;;
19414;SDS011;9843;48.882;12.592;2022-11-06T13:16:53;13.60;;;10.57;;
19414;SDS011;9843;48.882;12.592;2022-11-06T13:19:27;10.70;;;9.13;;
19414;SDS011;9843;48.882;12.592;2022-11-06T13:24:45;9.63;;;8.60;;
19414;SDS011;9843;48.882;12.592;2022-11-06T13:27:16;9.43;;;8.47;;
19414;SDS011;9843;48.882;12.592;2022-11-06T13:29:45;11.10;;;8.83;;
19414;SDS011;9843;48.882;12.592;2022-11-06T13:32:13;8.00;;;7.17;;
19414;SDS011;9843;48.882;12.592;2022-11-06T13:34:43;8.83;;;7.00;;
19414;SDS011;9843;48.882;12.592;2022-11-06T13:37:11;9.33;;;8.23;;
19414;SDS011;9843;48.882;12.592;2022-11-06T13:39:40;11.10;;;6.90;;
19414;SDS011;9843;48.882;12.592;2022-11-06T13:42:12;8.90;;;7.97;;
19414;SDS011;9843;48.882;12.592;2022-11-06T13:44:40;8.67;;;7.77;;
19414;SDS011;9843;48.882;12.592;2022-11-06T13:47:07;12.63;;;8.90;;
19414;SDS011;9843;48.882;12.592;2022-11-06T13:49:39;9.87;;;8.30;;
19414;SDS011;9843;48.882;12.592;2022-11-06T13:52:14;8.90;;;8.00;;
19414;SDS011;9843;48.882;12.592;2022-11-06T13:54:49;12.80;;;8.80;;
19414;SDS011;9843;48.882;12.592;2022-11-06T14:00:10;12.00;;;7.57;;
19414;SDS011;9843;48.882;12.592;2022-11-06T14:05:41;10.60;;;8.13;;
19414;SDS011;9843;48.882;12.592;2022-11-06T14:08:12;8.13;;;7.33;;
19414;SDS011;9843;48.882;12.592;2022-11-06T14:10:46;8.87;;;7.97;;
19414;SDS011;9843;48.882;12.592;2022-11-06T14:13:14;8.53;;;7.63;;
19414;SDS011;9843;48.882;12.592;2022-11-06T14:15:41;8.70;;;7.77;;
19414;SDS011;9843;48.882;12.592;2022-11-06T14:18:12;11.53;;;8.70;;
19414;SDS011;9843;48.882;12.592;2022-11-06T14:20:40;10.30;;;8.73;;
19414;SDS011;9843;48.882;12.592;2022-11-06T14:26:00;10.30;;;8.27;;
19414;SDS011;9843;48.882;12.592;2022-11-06T14:28:28;10.47;;;8.83;;
19414;SDS011;9843;48.882;12.592;2022-11-06T14:30:55;10.57;;;8.20;;
19414;SDS011;9843;48.882;12.592;2022-11-06T14:36:12;8.03;;;7.17;;
19414;SDS011;9843;48.882;12.592;2022-11-06T14:38:39;6.40;;;5.53;;
19414;SDS011;9843;48.882;12.592;2022-11-06T14:43:53;11.30;;;7.03;;
19414;SDS011;9843;48.882;12.592;2022-11-06T14:46:21;8.37;;;7.50;;
19414;SDS011;9843;48.882;12.592;2022-11-06T14:48:49;8.33;;;7.53;;
19414;SDS011;9843;48.882;12.592;2022-11-06T14:51:16;9.57;;;7.93;;
19414;SDS011;9843;48.882;12.592;2022-11-06T14:53:51;9.90;;;8.67;;